sensor_id;sensor_type;location;lat;lon;timestamp;P1;durP1;ratioP1;P2;durP2;ratioP2
9964;SDS011;5023;53.554;9.964;2023-03-12T00:00:59;8.80;;;6.77;;
9964;SDS011;5023;53.554;9.964;2023-03-12T00:06:03;9.20;;;6.67;;
9964;SDS011;5023;53.554;9.964;2023-03-12T00:11:06;7.47;;;6.50;;
9964;SDS011;5023;53.554;9.964;2023-03-12T00:16:10;10.97;;;7.47;;
9964;SDS011;5023;53.554;9.964;2023-03-12T00:21:14;11.17;;;7.50;;
9964;SDS011;5023;53.554;9.964;2023-03-12T00:26:18;16.80;;;9.63;;
9964;SDS011;5023;53.554;9.964;2023-03-12T00:31:21;9.73;;;7.30;;
9964;SDS011;5023;53.554;9.964;2023-03-12T00:36:28;9.07;;;7.30;;
9964;SDS011;5023;53.554;9.964;2023-03-12T00:41:31;13.40;;;9.80;;
9964;SDS011;5023;53.554;9.964;2023-03-12T00:46:32;13.00;;;9.23;;
9964;SDS011;5023;53.554;9.964;2023-03-12T00:51:36;12.73;;;10.20;;
9964;SDS011;5023;53.554;9.964;2023-03-12T00:56:38;10.43;;;8.17;;
9964;SDS011;5023;53.554;9.964;2023-03-12T01:01:40;10.90;;;8.50;;
9964;SDS011;5023;53.554;9.964;2023-03-12T01:06:44;8.70;;;7.57;;
9964;SDS011;5023;53.554;9.964;2023-03-12T01:11:46;12.87;;;8.73;;
9964;SDS011;5023;53.554;9.964;2023-03-12T01:16:48;9.57;;;8.10;;
9964;SDS011;5023;53.554;9.964;2023-03-12T01:21:52;9.07;;;8.17;;
9964;SDS011;5023;53.554;9.964;2023-03-12T01:26:54;14.30;;;9.33;;
9964;SDS011;5023;53.554;9.964;2023-03-12T01:31:56;16.00;;;11.23;;
9964;SDS011;5023;53.554;9.964;2023-03-12T01:37:01;12.80;;;9.50;;
9964;SDS011;5023;53.554;9.964;2023-03-12T01:42:03;11.67;;;8.93;;
9964;SDS011;5023;53.554;9.964;2023-03-12T01:47:07;11.20;;;8.73;;
9964;SDS011;5023;53.554;9.964;2023-03-12T01:52:13;12.90;;;8.57;;
9964;SDS011;5023;53.554;9.964;2023-03-12T01:57:19;10.23;;;8.13;;
9964;SDS011;5023;53.554;9.964;2023-03-12T02:02:25;9.80;;;8.47;;
9964;SDS011;5023;53.554;9.964;2023-03-12T02:07:31;10.40;;;8.27;;
9964;SDS011;5023;53.554;9.964;2023-03-12T02:12:34;9.70;;;7.40;;
9964;SDS011;5023;53.554;9.964;2023-03-12T02:17:37;9.73;;;7.30;;
9964;SDS011;5023;53.554;9.964;2023-03-12T02:22:44;10.63;;;7.23;;
9964;SDS011;5023;53.554;9.964;2023-03-12T02:27:50;8.57;;;6.93;;
9964;SDS011;5023;53.554;9.964;2023-03-12T02:32:53;8.03;;;6.50;;
9964;SDS011;5023;53.554;9.964;2023-03-12T02:37:56;16.97;;;10.10;;
9964;SDS011;5023;53.554;9.964;2023-03-12T02:42:59;15.07;;;10.03;;
9964;SDS011;5023;53.554;9.964;2023-03-12T02:48:04;10.07;;;7.53;;
9964;SDS011;5023;53.554;9.964;2023-03-12T02:53:08;9.47;;;6.90;;
9964;SDS011;5023;53.554;9.964;2023-03-12T02:58:12;11.63;;;8.80;;
9964;SDS011;5023;53.554;9.964;2023-03-12T03:03:14;12.73;;;8.50;;
9964;SDS011;5023;53.554;9.964;2023-03-12T03:08:16;17.07;;;12.10;;
9964;SDS011;5023;53.554;9.964;2023-03-12T03:13:19;12.37;;;9.00;;
9964;SDS011;5023;53.554;9.964;2023-03-12T03:18:21;15.33;;;10.27;;
9964;SDS011;5023;53.554;9.964;2023-03-12T03:23:23;15.23;;;8.77;;
9964;SDS011;5023;53.554;9.964;2023-03-12T03:28:27;13.73;;;9.00;;
9964;SDS011;5023;53.554;9.964;2023-03-12T03:33:30;15.33;;;10.07;;
9964;SDS011;5023;53.554;9.964;2023-03-12T03:38:34;24.40;;;13.80;;
9964;SDS011;5023;53.554;9.964;2023-03-12T03:43:38;17.37;;;11.80;;
9964;SDS011;5023;53.554;9.964;2023-03-12T03:48:40;16.03;;;12.00;;
9964;SDS011;5023;53.554;9.964;2023-03-12T03:53:42;15.53;;;12.03;;
9964;SDS011;5023;53.554;9.964;2023-03-12T03:58:45;16.13;;;11.03;;
9964;SDS011;5023;53.554;9.964;2023-03-12T04:03:48;13.47;;;9.90;;
9964;SDS011;5023;53.554;9.964;2023-03-12T04:08:50;16.00;;;11.73;;
9964;SDS011;5023;53.554;9.964;2023-03-12T04:13:53;13.77;;;11.13;;
9964;SDS011;5023;53.554;9.964;2023-03-12T04:18:55;16.70;;;11.67;;
9964;SDS011;5023;53.554;9.964;2023-03-12T04:23:57;13.03;;;9.90;;
9964;SDS011;5023;53.554;9.964;2023-03-12T04:29:00;11.70;;;8.80;;
9964;SDS011;5023;53.554;9.964;2023-03-12T04:34:02;12.53;;;8.73;;
9964;SDS011;5023;53.554;9.964;2023-03-12T04:39:05;10.00;;;7.30;;
9964;SDS011;5023;53.554;9.964;2023-03-12T04:44:08;9.57;;;8.37;;
9964;SDS011;5023;53.554;9.964;2023-03-12T04:49:10;10.43;;;6.93;;
9964;SDS011;5023;53.554;9.964;2023-03-12T04:54:12;13.47;;;8.63;;
9964;SDS011;5023;53.554;9.964;2023-03-12T04:59:15;13.97;;;8.90;;
9964;SDS011;5023;53.554;9.964;2023-03-12T05:04:18;12.17;;;9.03;;
9964;SDS011;5023;53.554;9.964;2023-03-12T05:09:20;12.33;;;9.20;;
9964;SDS011;5023;53.554;9.964;2023-03-12T05:14:23;13.03;;;8.77;;
9964;SDS011;5023;53.554;9.964;2023-03-12T05:19:25;11.03;;;8.47;;
9964;SDS011;5023;53.554;9.964;2023-03-12T05:24:27;14.30;;;8.87;;
9964;SDS011;5023;53.554;9.964;2023-03-12T05:29:30;11.23;;;8.27;;
9964;SDS011;5023;53.554;9.964;2023-03-12T05:34:34;13.87;;;8.80;;
9964;SDS011;5023;53.554;9.964;2023-03-12T05:39:36;8.63;;;7.73;;
9964;SDS011;5023;53.554;9.964;2023-03-12T05:44:40;12.23;;;8.30;;
9964;SDS011;5023;53.554;9.964;2023-03-12T05:49:42;12.20;;;8.57;;
9964;SDS011;5023;53.554;9.964;2023-03-12T05:54:44;13.93;;;9.07;;
9964;SDS011;5023;53.554;9.964;2023-03-12T05:59:48;10.87;;;9.03;;
9964;SDS011;5023;53.554;9.964;2023-03-12T06:04:49;10.57;;;8.87;;
9964;SDS011;5023;53.554;9.964;2023-03-12T06:09:51;12.90;;;10.17;;
9964;SDS011;5023;53.554;9.964;2023-03-12T06:14:55;13.47;;;9.97;;
9964;SDS011;5023;53.554;9.964;2023-03-12T06:19:58;12.73;;;9.43;;
9964;SDS011;5023;53.554;9.964;2023-03-12T06:25:00;12.83;;;9.73;;
9964;SDS011;5023;53.554;9.964;2023-03-12T06:30:04;16.73;;;10.97;;
9964;SDS011;5023;53.554;9.964;2023-03-12T06:35:07;12.77;;;9.93;;
9964;SDS011;5023;53.554;9.964;2023-03-12T06:40:09;12.97;;;10.77;;
9964;SDS011;5023;53.554;9.964;2023-03-12T06:45:15;13.10;;;11.00;;
9964;SDS011;5023;53.554;9.964;2023-03-12T06:50:17;14.17;;;11.03;;
9964;SDS011;5023;53.554;9.964;2023-03-12T06:55:19;13.63;;;11.03;;
9964;SDS011;5023;53.554;9.964;2023-03-12T07:00:22;15.87;;;11.80;;
9964;SDS011;5023;53.554;9.964;2023-03-12T07:05:26;18.33;;;12.90;;
9964;SDS011;5023;53.554;9.964;2023-03-12T07:10:28;13.83;;;12.07;;
9964;SDS011;5023;53.554;9.964;2023-03-12T07:15:32;13.47;;;11.33;;
9964;SDS011;5023;53.554;9.964;2023-03-12T07:20:35;17.03;;;11.80;;
9964;SDS011;5023;53.554;9.964;2023-03-12T07:25:38;13.10;;;10.50;;
9964;SDS011;5023;53.554;9.964;2023-03-12T07:30:44;12.60;;;10.57;;
9964;SDS011;5023;53.554;9.964;2023-03-12T07:35:49;14.13;;;10.53;;
9964;SDS011;5023;53.554;9.964;2023-03-12T07:40:51;13.40;;;9.50;;
9964;SDS011;5023;53.554;9.964;2023-03-12T07:45:56;10.60;;;9.00;;
9964;SDS011;5023;53.554;9.964;2023-03-12T07:50:58;11.03;;;7.60;;
9964;SDS011;5023;53.554;9.964;2023-03-12T07:56:01;11.60;;;8.50;;
9964;SDS011;5023;53.554;9.964;2023-03-12T08:01:04;11.67;;;7.50;;
9964;SDS011;5023;53.554;9.964;2023-03-12T08:06:07;12.30;;;7.17;;
9964;SDS011;5023;53.554;9.964;2023-03-12T08:11:09;8.77;;;7.20;;
9964;SDS011;5023;53.554;9.964;2023-03-12T08:16:12;8.30;;;7.07;;
9964;SDS011;5023;53.554;9.964;2023-03-12T08:21:14;9.57;;;6.93;;
9964;SDS011;5023;53.554;9.964;2023-03-12T08:26:16;10.40;;;7.27;;
9964;SDS011;5023;53.554;9.964;2023-03-12T08:31:20;8.47;;;6.30;;
9964;SDS011;5023;53.554;9.964;2023-03-12T08:36:22;7.90;;;6.50;;
9964;SDS011;5023;53.554;9.964;2023-03-12T08:41:24;9.90;;;6.73;;
9964;SDS011;5023;53.554;9.964;2023-03-12T08:46:27;15.47;;;11.60;;
9964;SDS011;5023;53.554;9.964;2023-03-12T08:51:29;8.90;;;5.90;;
9964;SDS011;5023;53.554;9.964;2023-03-12T08:56:33;6.93;;;5.97;;
9964;SDS011;5023;53.554;9.964;2023-03-12T09:01:37;11.07;;;5.87;;
9964;SDS011;5023;53.554;9.964;2023-03-12T09:06:42;7.60;;;6.23;;
9964;SDS011;5023;53.554;9.964;2023-03-12T09:11:44;8.23;;;6.53;;
9964;SDS011;5023;53.554;9.964;2023-03-12T09:16:48;7.67;;;6.77;;
9964;SDS011;5023;53.554;9.964;2023-03-12T09:21:54;7.47;;;5.10;;
9964;SDS011;5023;53.554;9.964;2023-03-12T09:26:56;5.90;;;5.27;;
9964;SDS011;5023;53.554;9.964;2023-03-12T09:32:00;8.77;;;5.97;;
9964;SDS011;5023;53.554;9.964;2023-03-12T09:37:02;7.73;;;6.30;;
9964;SDS011;5023;53.554;9.964;2023-03-12T09:42:04;5.73;;;5.13;;
9964;SDS011;5023;53.554;9.964;2023-03-12T09:47:19;5.67;;;5.13;;
9964;SDS011;5023;53.554;9.964;2023-03-12T09:52:28;6.23;;;5.50;;
9964;SDS011;5023;53.554;9.964;2023-03-12T09:57:32;8.20;;;6.97;;
9964;SDS011;5023;53.554;9.964;2023-03-12T10:02:44;7.60;;;5.30;;
9964;SDS011;5023;53.554;9.964;2023-03-12T10:08:09;7.70;;;5.10;;
9964;SDS011;5023;53.554;9.964;2023-03-12T10:13:22;9.23;;;4.97;;
9964;SDS011;5023;53.554;9.964;2023-03-12T10:18:49;7.50;;;5.23;;
9964;SDS011;5023;53.554;9.964;2023-03-12T10:24:10;7.63;;;4.87;;
9964;SDS011;5023;53.554;9.964;2023-03-12T10:29:31;7.03;;;4.47;;
9964;SDS011;5023;53.554;9.964;2023-03-12T10:34:40;8.30;;;4.03;;
9964;SDS011;5023;53.554;9.964;2023-03-12T10:39:46;8.40;;;4.83;;
9964;SDS011;5023;53.554;9.964;2023-03-12T10:44:50;7.97;;;4.80;;
9964;SDS011;5023;53.554;9.964;2023-03-12T10:49:55;5.43;;;4.70;;
9964;SDS011;5023;53.554;9.964;2023-03-12T10:55:19;6.80;;;4.77;;
9964;SDS011;5023;53.554;9.964;2023-03-12T11:00:23;8.73;;;4.63;;
9964;SDS011;5023;53.554;9.964;2023-03-12T11:05:29;7.23;;;4.43;;
9964;SDS011;5023;53.554;9.964;2023-03-12T11:10:42;7.63;;;4.70;;
9964;SDS011;5023;53.554;9.964;2023-03-12T11:15:49;7.00;;;4.27;;
9964;SDS011;5023;53.554;9.964;2023-03-12T11:20:53;7.27;;;4.83;;
9964;SDS011;5023;53.554;9.964;2023-03-12T11:25:57;5.07;;;4.00;;
9964;SDS011;5023;53.554;9.964;2023-03-12T11:31:01;5.70;;;4.20;;
9964;SDS011;5023;53.554;9.964;2023-03-12T11:36:12;7.07;;;5.70;;
9964;SDS011;5023;53.554;9.964;2023-03-12T11:41:29;6.77;;;4.10;;
9964;SDS011;5023;53.554;9.964;2023-03-12T11:46:43;6.17;;;5.07;;
9964;SDS011;5023;53.554;9.964;2023-03-12T11:51:59;8.90;;;4.87;;
9964;SDS011;5023;53.554;9.964;2023-03-12T11:57:10;8.50;;;4.37;;
9964;SDS011;5023;53.554;9.964;2023-03-12T12:02:26;6.63;;;5.17;;
9964;SDS011;5023;53.554;9.964;2023-03-12T12:07:47;8.63;;;6.20;;
9964;SDS011;5023;53.554;9.964;2023-03-12T12:13:02;7.77;;;5.50;;
9964;SDS011;5023;53.554;9.964;2023-03-12T12:18:13;9.40;;;6.50;;
9964;SDS011;5023;53.554;9.964;2023-03-12T12:23:29;15.57;;;7.57;;
9964;SDS011;5023;53.554;9.964;2023-03-12T12:28:45;4.80;;;3.60;;
9964;SDS011;5023;53.554;9.964;2023-03-12T12:34:06;5.23;;;3.63;;
9964;SDS011;5023;53.554;9.964;2023-03-12T12:39:41;7.60;;;3.60;;
9964;SDS011;5023;53.554;9.964;2023-03-12T12:44:48;6.20;;;3.23;;
9964;SDS011;5023;53.554;9.964;2023-03-12T12:49:53;4.17;;;2.90;;
9964;SDS011;5023;53.554;9.964;2023-03-12T12:55:02;3.90;;;2.77;;
9964;SDS011;5023;53.554;9.964;2023-03-12T13:00:19;6.50;;;3.60;;
9964;SDS011;5023;53.554;9.964;2023-03-12T13:05:43;5.00;;;3.20;;
9964;SDS011;5023;53.554;9.964;2023-03-12T13:10:50;6.57;;;3.57;;
9964;SDS011;5023;53.554;9.964;2023-03-12T13:21:20;4.33;;;2.87;;
9964;SDS011;5023;53.554;9.964;2023-03-12T13:26:31;7.20;;;3.87;;
9964;SDS011;5023;53.554;9.964;2023-03-12T13:31:47;5.13;;;3.63;;
9964;SDS011;5023;53.554;9.964;2023-03-12T13:36:50;5.10;;;4.60;;
9964;SDS011;5023;53.554;9.964;2023-03-12T13:41:56;2.97;;;2.47;;
9964;SDS011;5023;53.554;9.964;2023-03-12T13:46:59;7.43;;;3.67;;
9964;SDS011;5023;53.554;9.964;2023-03-12T13:52:15;5.27;;;3.43;;
9964;SDS011;5023;53.554;9.964;2023-03-12T13:57:27;4.10;;;3.43;;
9964;SDS011;5023;53.554;9.964;2023-03-12T14:02:32;4.80;;;3.40;;
9964;SDS011;5023;53.554;9.964;2023-03-12T14:07:41;5.03;;;3.77;;
9964;SDS011;5023;53.554;9.964;2023-03-12T14:13:10;3.87;;;3.20;;
9964;SDS011;5023;53.554;9.964;2023-03-12T14:18:22;3.77;;;3.40;;
9964;SDS011;5023;53.554;9.964;2023-03-12T14:23:27;3.40;;;3.10;;
9964;SDS011;5023;53.554;9.964;2023-03-12T14:28:39;5.37;;;3.10;;
9964;SDS011;5023;53.554;9.964;2023-03-12T14:33:46;4.93;;;4.10;;
9964;SDS011;5023;53.554;9.964;2023-03-12T14:38:56;4.83;;;3.90;;
9964;SDS011;5023;53.554;9.964;2023-03-12T14:44:04;7.40;;;4.53;;
9964;SDS011;5023;53.554;9.964;2023-03-12T14:49:18;5.57;;;4.57;;
9964;SDS011;5023;53.554;9.964;2023-03-12T14:54:21;7.73;;;4.90;;
9964;SDS011;5023;53.554;9.964;2023-03-12T14:59:27;5.47;;;4.70;;
9964;SDS011;5023;53.554;9.964;2023-03-12T15:04:31;5.77;;;4.80;;
9964;SDS011;5023;53.554;9.964;2023-03-12T15:09:36;6.30;;;5.67;;
9964;SDS011;5023;53.554;9.964;2023-03-12T15:14:42;6.23;;;5.27;;
9964;SDS011;5023;53.554;9.964;2023-03-12T15:19:45;7.73;;;5.43;;
9964;SDS011;5023;53.554;9.964;2023-03-12T15:24:49;7.10;;;4.90;;
9964;SDS011;5023;53.554;9.964;2023-03-12T15:29:53;6.17;;;4.80;;
9964;SDS011;5023;53.554;9.964;2023-03-12T15:34:57;8.37;;;6.07;;
9964;SDS011;5023;53.554;9.964;2023-03-12T15:39:59;5.47;;;4.93;;
9964;SDS011;5023;53.554;9.964;2023-03-12T15:45:13;8.27;;;6.20;;
9964;SDS011;5023;53.554;9.964;2023-03-12T15:50:19;10.17;;;6.90;;
9964;SDS011;5023;53.554;9.964;2023-03-12T15:55:26;6.30;;;5.70;;
9964;SDS011;5023;53.554;9.964;2023-03-12T16:00:33;7.67;;;5.00;;
9964;SDS011;5023;53.554;9.964;2023-03-12T16:05:42;7.10;;;6.40;;
9964;SDS011;5023;53.554;9.964;2023-03-12T16:10:45;8.23;;;6.80;;
9964;SDS011;5023;53.554;9.964;2023-03-12T16:15:50;6.50;;;5.37;;
9964;SDS011;5023;53.554;9.964;2023-03-12T16:20:52;6.80;;;6.10;;
9964;SDS011;5023;53.554;9.964;2023-03-12T16:25:55;6.50;;;5.90;;
9964;SDS011;5023;53.554;9.964;2023-03-12T16:31:08;6.17;;;5.57;;
9964;SDS011;5023;53.554;9.964;2023-03-12T16:36:12;6.90;;;6.20;;
9964;SDS011;5023;53.554;9.964;2023-03-12T16:41:18;6.90;;;6.20;;
9964;SDS011;5023;53.554;9.964;2023-03-12T16:46:22;9.27;;;8.30;;
9964;SDS011;5023;53.554;9.964;2023-03-12T16:51:26;8.97;;;7.10;;
9964;SDS011;5023;53.554;9.964;2023-03-12T16:56:28;7.17;;;6.50;;
9964;SDS011;5023;53.554;9.964;2023-03-12T17:01:32;9.83;;;7.80;;
9964;SDS011;5023;53.554;9.964;2023-03-12T17:06:35;10.27;;;9.20;;
9964;SDS011;5023;53.554;9.964;2023-03-12T17:11:39;14.33;;;11.80;;
9964;SDS011;5023;53.554;9.964;2023-03-12T17:16:43;10.47;;;8.97;;
9964;SDS011;5023;53.554;9.964;2023-03-12T17:21:51;9.77;;;8.77;;
9964;SDS011;5023;53.554;9.964;2023-03-12T17:26:54;11.63;;;10.43;;
9964;SDS011;5023;53.554;9.964;2023-03-12T17:31:58;13.03;;;11.63;;
9964;SDS011;5023;53.554;9.964;2023-03-12T17:37:00;11.57;;;10.37;;
9964;SDS011;5023;53.554;9.964;2023-03-12T17:42:02;21.33;;;18.97;;
9964;SDS011;5023;53.554;9.964;2023-03-12T17:47:06;13.93;;;12.37;;
9964;SDS011;5023;53.554;9.964;2023-03-12T17:52:08;14.57;;;12.40;;
9964;SDS011;5023;53.554;9.964;2023-03-12T17:57:10;12.13;;;10.50;;
9964;SDS011;5023;53.554;9.964;2023-03-12T18:02:14;12.67;;;11.00;;
9964;SDS011;5023;53.554;9.964;2023-03-12T18:07:16;18.50;;;13.83;;
9964;SDS011;5023;53.554;9.964;2023-03-12T18:12:18;18.00;;;15.10;;
9964;SDS011;5023;53.554;9.964;2023-03-12T18:17:22;21.20;;;16.40;;
9964;SDS011;5023;53.554;9.964;2023-03-12T18:22:24;23.67;;;17.63;;
9964;SDS011;5023;53.554;9.964;2023-03-12T18:27:26;25.00;;;17.80;;
9964;SDS011;5023;53.554;9.964;2023-03-12T18:32:29;29.73;;;20.00;;
9964;SDS011;5023;53.554;9.964;2023-03-12T18:37:32;30.30;;;17.90;;
9964;SDS011;5023;53.554;9.964;2023-03-12T18:42:35;28.47;;;19.60;;
9964;SDS011;5023;53.554;9.964;2023-03-12T18:47:38;28.23;;;19.27;;
9964;SDS011;5023;53.554;9.964;2023-03-12T18:52:41;31.90;;;21.53;;
9964;SDS011;5023;53.554;9.964;2023-03-12T18:57:43;29.17;;;20.87;;
9964;SDS011;5023;53.554;9.964;2023-03-12T19:02:48;32.70;;;20.83;;
9964;SDS011;5023;53.554;9.964;2023-03-12T19:07:49;31.33;;;21.57;;
9964;SDS011;5023;53.554;9.964;2023-03-12T19:12:52;37.20;;;22.97;;
9964;SDS011;5023;53.554;9.964;2023-03-12T19:17:55;35.97;;;22.63;;
9964;SDS011;5023;53.554;9.964;2023-03-12T19:22:57;40.23;;;23.43;;
9964;SDS011;5023;53.554;9.964;2023-03-12T19:27:59;43.90;;;24.07;;
9964;SDS011;5023;53.554;9.964;2023-03-12T19:33:03;44.63;;;25.57;;
9964;SDS011;5023;53.554;9.964;2023-03-12T19:38:05;43.77;;;24.40;;
9964;SDS011;5023;53.554;9.964;2023-03-12T19:43:07;41.77;;;25.37;;
9964;SDS011;5023;53.554;9.964;2023-03-12T19:48:10;48.03;;;24.67;;
9964;SDS011;5023;53.554;9.964;2023-03-12T19:53:13;47.50;;;25.50;;
9964;SDS011;5023;53.554;9.964;2023-03-12T19:58:16;47.40;;;25.63;;
9964;SDS011;5023;53.554;9.964;2023-03-12T20:03:20;53.57;;;27.33;;
9964;SDS011;5023;53.554;9.964;2023-03-12T20:08:24;51.10;;;26.53;;
9964;SDS011;5023;53.554;9.964;2023-03-12T20:13:33;56.70;;;33.07;;
9964;SDS011;5023;53.554;9.964;2023-03-12T20:18:38;48.50;;;28.07;;
9964;SDS011;5023;53.554;9.964;2023-03-12T20:23:40;51.77;;;26.57;;
9964;SDS011;5023;53.554;9.964;2023-03-12T20:28:42;56.30;;;27.00;;
9964;SDS011;5023;53.554;9.964;2023-03-12T20:33:45;48.93;;;26.50;;
9964;SDS011;5023;53.554;9.964;2023-03-12T20:38:48;52.83;;;26.10;;
9964;SDS011;5023;53.554;9.964;2023-03-12T20:43:52;43.67;;;26.23;;
9964;SDS011;5023;53.554;9.964;2023-03-12T20:48:57;44.33;;;25.87;;
9964;SDS011;5023;53.554;9.964;2023-03-12T20:53:59;37.57;;;22.33;;
9964;SDS011;5023;53.554;9.964;2023-03-12T20:59:01;40.87;;;23.03;;
9964;SDS011;5023;53.554;9.964;2023-03-12T21:04:05;46.80;;;20.80;;
9964;SDS011;5023;53.554;9.964;2023-03-12T21:09:08;38.93;;;18.63;;
9964;SDS011;5023;53.554;9.964;2023-03-12T21:14:11;38.60;;;17.43;;
9964;SDS011;5023;53.554;9.964;2023-03-12T21:19:14;34.77;;;17.83;;
9964;SDS011;5023;53.554;9.964;2023-03-12T21:24:16;33.97;;;16.80;;
9964;SDS011;5023;53.554;9.964;2023-03-12T21:29:18;39.90;;;17.00;;
9964;SDS011;5023;53.554;9.964;2023-03-12T21:34:22;34.57;;;15.27;;
9964;SDS011;5023;53.554;9.964;2023-03-12T21:39:27;32.70;;;14.93;;
9964;SDS011;5023;53.554;9.964;2023-03-12T21:44:29;31.40;;;16.20;;
9964;SDS011;5023;53.554;9.964;2023-03-12T21:49:33;31.40;;;14.43;;
9964;SDS011;5023;53.554;9.964;2023-03-12T21:54:35;29.80;;;13.67;;
9964;SDS011;5023;53.554;9.964;2023-03-12T21:59:37;33.73;;;14.77;;
9964;SDS011;5023;53.554;9.964;2023-03-12T22:04:41;24.57;;;13.40;;
9964;SDS011;5023;53.554;9.964;2023-03-12T22:09:44;32.07;;;13.80;;
9964;SDS011;5023;53.554;9.964;2023-03-12T22:14:46;30.03;;;13.63;;
9964;SDS011;5023;53.554;9.964;2023-03-12T22:19:50;31.90;;;13.97;;
9964;SDS011;5023;53.554;9.964;2023-03-12T22:24:53;30.47;;;14.17;;
9964;SDS011;5023;53.554;9.964;2023-03-12T22:29:55;37.00;;;14.13;;
9964;SDS011;5023;53.554;9.964;2023-03-12T22:34:59;33.43;;;13.83;;
9964;SDS011;5023;53.554;9.964;2023-03-12T22:40:02;33.43;;;14.20;;
9964;SDS011;5023;53.554;9.964;2023-03-12T22:45:06;32.07;;;15.70;;
9964;SDS011;5023;53.554;9.964;2023-03-12T22:50:11;28.10;;;13.40;;
9964;SDS011;5023;53.554;9.964;2023-03-12T22:55:14;30.40;;;12.27;;
9964;SDS011;5023;53.554;9.964;2023-03-12T23:00:17;22.00;;;11.03;;
9964;SDS011;5023;53.554;9.964;2023-03-12T23:05:26;22.37;;;9.43;;
9964;SDS011;5023;53.554;9.964;2023-03-12T23:10:28;21.03;;;9.27;;
9964;SDS011;5023;53.554;9.964;2023-03-12T23:15:32;21.53;;;9.20;;
9964;SDS011;5023;53.554;9.964;2023-03-12T23:20:36;26.80;;;8.90;;
9964;SDS011;5023;53.554;9.964;2023-03-12T23:25:38;29.00;;;9.00;;
9964;SDS011;5023;53.554;9.964;2023-03-12T23:30:40;22.80;;;9.07;;
9964;SDS011;5023;53.554;9.964;2023-03-12T23:35:51;19.77;;;8.03;;
9964;SDS011;5023;53.554;9.964;2023-03-12T23:40:57;22.67;;;8.43;;
9964;SDS011;5023;53.554;9.964;2023-03-12T23:46:00;27.30;;;9.37;;
9964;SDS011;5023;53.554;9.964;2023-03-12T23:51:07;24.80;;;8.40;;
9964;SDS011;5023;53.554;9.964;2023-03-12T23:56:11;21.23;;;7.83;;
